KLRJ/LRJ METAR and TAF weather

Enter ICAO airport designator
Station Type Date Time Source
KLRJ METAR 2021/02/27 09:15 UTC NOAA

KLRJ 270915Z AUTO 00000KT 10SM CLR M02/M03 A2975 RMK AO2


Station Type Date Time Source
KLRJ Decoded METAR 2021/02/27 09:15 UTC NOAA

Le Mars, Le Mars Municipal Airport, IA, United States (KLRJ) 42-46-41N 096-11-37W
Feb 27, 2021 - 04:15 AM EST / 2021.02.27 0915 UTC
Wind: Calm:0
Visibility: 10 mile(s):0
Sky conditions: clear
Temperature: 28 F (-2 C)
Dew Point: 26 F (-3 C)
Relative Humidity: 92%
Pressure (altimeter): 29.75 in. Hg (1007 hPa)
ob: KLRJ 270915Z AUTO 00000KT 10SM CLR M02/M03 A2975 RMK AO2
cycle: 9

Station Type Date Time Source
KLRJ TAF UTC NOAA

Error!

Example: see airport list